Time;durP1;ratioP1;P1;durP2;ratioP2;P2;SDS_P1;SDS_P2;PMS_P1;PMS_P2;Temp;Humidity;BMP_temperature;BMP_pressure;BME280_temperature;BME280_humidity;BME280_pressure;Samples;Min_cycle;Max_cycle;Signal;HPM_P1;HPM_P2
2021/12/21 07:00:21;;;;;;;15.17;7.57;;;;;;;-6.86;100.00;99804.31;5152016;27;20389;-81
2021/12/21 07:02:48;;;;;;;13.27;7.23;;;;;;;-6.77;100.00;99805.72;5152523;27;20463;-81
2021/12/21 07:05:17;;;;;;;16.90;6.97;;;;;;;-6.65;100.00;99814.97;5137996;27;20054;-81
2021/12/21 07:07:44;;;;;;;14.63;6.63;;;;;;;-6.61;100.00;99813.91;5130674;27;20482;-81
2021/12/21 07:10:21;;;;;;;13.63;7.47;;;;;;;-6.49;100.00;99828.44;5130185;27;20345;-81
2021/12/21 07:18:29;;;;;;;16.97;7.83;;;;;;;-6.30;100.00;99828.56;5137652;27;20095;-81
2021/12/21 07:20:59;;;;;;;14.03;7.03;;;;;;;-6.36;100.00;99820.88;5133419;27;20099;-81
2021/12/21 07:23:26;;;;;;;14.90;7.07;;;;;;;-6.38;100.00;99818.31;5130279;27;20047;-81
2021/12/21 07:25:53;;;;;;;16.47;7.27;;;;;;;-6.39;100.00;99813.06;5130009;27;20481;-81
2021/12/21 07:28:21;;;;;;;20.80;6.80;;;;;;;-6.43;100.00;99820.25;5144096;27;20065;-81
2021/12/21 07:30:49;;;;;;;15.97;6.10;;;;;;;-6.38;100.00;99820.94;5135316;27;20044;-81
2021/12/21 07:33:18;;;;;;;13.77;6.60;;;;;;;-6.45;100.00;99820.31;5129817;27;20052;-81
2021/12/21 07:35:45;;;;;;;13.43;5.90;;;;;;;-6.43;100.00;99829.06;5130108;27;20055;-81
2021/12/21 07:38:13;;;;;;;15.67;5.90;;;;;;;-6.34;100.00;99834.91;5127265;27;20058;-81
2021/12/21 07:40:40;;;;;;;12.37;6.43;;;;;;;-6.37;100.00;99832.38;5133204;27;20056;-81
2021/12/21 07:43:07;;;;;;;19.07;6.03;;;;;;;-6.25;100.00;99843.34;5129417;27;20047;-81
2021/12/21 07:45:35;;;;;;;14.27;6.17;;;;;;;-6.18;100.00;99853.69;5129629;27;20071;-81
2021/12/21 07:48:04;;;;;;;11.53;5.90;;;;;;;-6.19;100.00;99855.44;5129661;27;20047;-81
2021/12/21 07:50:31;;;;;;;15.20;7.18;;;;;;;-6.19;100.00;99851.97;5136322;27;20055;-81
2021/12/21 07:53:00;;;;;;;18.20;7.60;;;;;;;-6.16;100.00;99854.47;5150601;27;20049;-80
2021/12/21 07:55:27;;;;;;;15.50;7.23;;;;;;;-6.22;100.00;99845.00;5123441;27;20047;-80
2021/12/21 07:57:54;;;;;;;20.60;8.10;;;;;;;-6.19;100.00;99838.72;5129615;27;20052;-80
2021/12/21 08:00:22;;;;;;;15.97;7.80;;;;;;;-6.05;100.00;99857.56;5128634;27;20047;-81
2021/12/21 08:02:49;;;;;;;19.50;8.20;;;;;;;-6.12;100.00;99846.34;5128481;27;20047;-81
2021/12/21 08:05:18;;;;;;;16.60;7.27;;;;;;;-6.12;100.00;99843.69;5124631;27;20138;-81
2021/12/21 08:07:51;;;;;;;16.63;6.95;;;;;;;-6.05;100.00;99850.47;5108940;28;20047;-81
2021/12/21 08:10:25;;;;;;;17.00;8.13;;;;;;;-6.02;100.00;99849.50;5102332;27;20558;-81
2021/12/21 08:12:53;;;;;;;17.77;6.63;;;;;;;-5.96;100.00;99856.25;5108354;28;20040;-81
2021/12/21 08:15:20;;;;;;;13.17;6.27;;;;;;;-6.05;100.00;99847.81;5114886;28;20052;-81
2021/12/21 08:18:02;;;;;;;11.03;6.33;;;;;;;-5.92;100.00;99865.81;5115903;27;20055;-81
2021/12/21 08:20:37;;;;;;;15.13;7.03;;;;;;;-5.89;100.00;99871.84;5121954;27;20398;-81
2021/12/21 08:23:08;;;;;;;8.97;5.80;;;;;;;-6.00;100.00;99862.66;5133112;27;20059;-81
2021/12/21 08:28:22;;;;;;;13.20;5.73;;;;;;;-5.97;100.00;99873.97;5114435;28;20112;-82
2021/12/21 08:33:46;;;;;;;14.87;6.67;;;;;;;-5.83;100.00;99864.56;5102976;27;20053;-82
2021/12/21 08:36:31;;;;;;;11.32;6.45;;;;;;;-5.83;100.00;99862.78;5119923;27;20131;-82
2021/12/21 08:39:18;;;;;;;15.17;7.07;;;;;;;-5.65;100.00;99884.13;5132491;27;20483;-82
2021/12/21 08:41:58;;;;;;;14.13;7.47;;;;;;;-5.65;100.00;99852.34;5135936;27;20051;-81
2021/12/21 08:44:29;;;;;;;16.73;7.33;;;;;;;-5.58;100.00;99853.81;5126704;27;20047;-80
2021/12/21 08:47:03;;;;;;;18.70;7.37;;;;;;;-5.56;100.00;99849.28;5109631;27;20043;-80
2021/12/21 08:49:50;;;;;;;15.33;7.53;;;;;;;-5.51;100.00;99856.13;5115350;27;20483;-80
2021/12/21 08:52:23;;;;;;;17.00;7.30;;;;;;;-5.40;100.00;99854.81;5118559;27;20092;-81
2021/12/21 08:55:17;;;;;;;14.60;7.50;;;;;;;-5.52;100.00;99827.06;5114508;27;20108;-82
2021/12/21 08:57:53;;;;;;;19.50;8.33;;;;;;;-5.42;100.00;99838.09;5112717;28;20589;-80
2021/12/21 09:00:26;;;;;;;15.93;6.63;;;;;;;-5.37;100.00;99836.97;5112100;27;20497;-81
2021/12/21 09:02:56;;;;;;;20.37;7.43;;;;;;;-5.18;100.00;99860.88;5115946;27;20035;-81
2021/12/21 09:05:27;;;;;;;17.20;7.00;;;;;;;-5.16;100.00;99851.06;5114347;28;20513;-81
2021/12/21 09:08:01;;;;;;;22.13;8.17;;;;;;;-5.08;100.00;99833.94;5127770;27;20046;-81
2021/12/21 09:10:31;;;;;;;15.37;7.30;;;;;;;-5.01;100.00;99838.06;5124731;27;20130;-81
2021/12/21 09:12:59;;;;;;;19.87;7.27;;;;;;;-4.99;100.00;99839.69;5135447;27;20043;-80
2021/12/21 09:15:28;;;;;;;17.80;8.33;;;;;;;-4.88;100.00;99841.84;5128581;27;20050;-81
2021/12/21 09:21:17;;;;;;;19.17;7.00;;;;;;;-4.70;100.00;99831.31;5119466;27;20047;-81
2021/12/21 09:26:58;;;;;;;24.10;9.37;;;;;;;-4.43;100.00;99847.72;5118720;27;20486;-81
2021/12/21 09:29:32;;;;;;;18.47;7.80;;;;;;;-4.40;100.00;99846.72;5119031;27;20476;-81
2021/12/21 09:32:22;;;;;;;16.93;9.30;;;;;;;-4.32;100.00;99845.44;5095128;28;20044;-81
2021/12/21 09:35:06;;;;;;;19.80;8.80;;;;;;;-4.19;100.00;99840.38;5107748;27;20047;-81
2021/12/21 09:37:41;;;;;;;25.80;10.83;;;;;;;-4.18;100.00;99835.94;5114479;27;20047;-81
2021/12/21 09:40:38;;;;;;;21.47;8.97;;;;;;;-4.19;100.00;99824.44;5112701;28;20043;-81
2021/12/21 09:43:26;;;;;;;23.23;10.10;;;;;;;-4.04;100.00;99846.72;5130718;27;20494;-81
2021/12/21 09:46:33;;;;;;;23.73;10.80;;;;;;;-3.94;100.00;99845.34;5123434;27;20387;-81
2021/12/21 09:49:21;;;;;;;23.47;11.10;;;;;;;-3.84;100.00;99844.88;5121290;27;20123;-81
2021/12/21 09:51:54;;;;;;;20.97;9.60;;;;;;;-3.89;100.00;99828.31;5103362;28;20044;-81
2021/12/21 09:54:37;;;;;;;21.07;8.70;;;;;;;-3.72;100.00;99838.94;5096285;27;20403;-80
2021/12/21 09:57:15;;;;;;;29.07;9.63;;;;;;;-3.66;100.00;99843.09;5120168;27;20043;-81
2021/12/21 09:59:43;;;;;;;16.63;8.63;;;;;;;-3.51;100.00;99846.78;5121616;27;20039;-81
2021/12/21 10:02:36;;;;;;;22.93;9.60;;;;;;;-3.44;100.00;99853.50;5114019;27;20047;-80
2021/12/21 10:05:16;;;;;;;17.10;8.67;;;;;;;-3.39;100.00;99843.47;5098160;27;20437;-80
2021/12/21 10:07:58;;;;;;;22.65;9.43;;;;;;;-3.42;100.00;99825.03;5093668;28;20046;-80
2021/12/21 10:10:34;;;;;;;17.40;9.27;;;;;;;-3.30;100.00;99836.81;5111293;28;20060;-81
2021/12/21 10:13:15;;;;;;;19.37;9.87;;;;;;;-3.21;100.00;99831.91;5107296;27;20047;-80
2021/12/21 10:15:46;;;;;;;14.43;9.60;;;;;;;-3.24;100.00;99829.41;5110906;28;20043;-80
2021/12/21 10:18:14;;;;;;;22.57;10.33;;;;;;;-3.18;100.00;99820.22;5114047;28;20044;-80
2021/12/21 10:20:44;;;;;;;26.77;10.07;;;;;;;-2.98;100.00;99842.22;5095174;27;20438;-80
2021/12/21 10:23:14;;;;;;;18.23;9.23;;;;;;;-3.03;100.00;99822.06;5094541;28;20055;-80
2021/12/21 10:25:44;;;;;;;23.90;10.27;;;;;;;-2.85;100.00;99830.84;5111097;28;20047;-80
2021/12/21 10:28:12;;;;;;;;;;;;;;;-2.78;100.00;99819.88;5112452;28;20055;-80
2021/12/21 10:30:52;;;;;;;16.47;8.60;;;;;;;-2.78;100.00;99820.72;5124564;28;19920;-80
2021/12/21 10:33:23;;;;;;;19.43;8.33;;;;;;;-2.75;100.00;99823.22;5111570;28;20461;-80
2021/12/21 10:35:50;;;;;;;17.40;8.40;;;;;;;-2.72;100.00;99799.09;5112847;28;20051;-80
2021/12/21 10:38:32;;;;;;;15.73;8.67;;;;;;;-2.59;100.00;99812.59;5098972;28;20076;-80
2021/12/21 10:41:05;;;;;;;16.60;9.17;;;;;;;-2.56;100.00;99799.13;5092106;28;20074;-80
2021/12/21 10:43:37;;;;;;;16.57;8.77;;;;;;;-2.52;100.00;99797.97;5112205;27;20044;-80
2021/12/21 10:46:04;;;;;;;19.27;8.93;;;;;;;-2.47;100.00;99788.88;5112015;28;20047;-80
2021/12/21 10:48:35;;;;;;;17.57;9.20;;;;;;;-2.45;100.00;99784.31;5112349;28;20054;-80
2021/12/21 10:51:04;;;;;;;18.87;8.27;;;;;;;-2.33;100.00;99791.63;5112624;28;20055;-80
2021/12/21 10:53:31;;;;;;;20.20;8.10;;;;;;;-2.20;100.00;99789.09;5109601;28;20130;-80
2021/12/21 10:56:06;;;;;;;13.23;7.93;;;;;;;-2.08;100.00;99779.53;5112446;28;20055;-80
2021/12/21 10:58:39;;;;;;;20.17;7.87;;;;;;;-2.10;100.00;99773.47;5111797;28;20047;-80
2021/12/21 11:01:09;;;;;;;15.53;7.70;;;;;;;-2.04;100.00;99776.59;5111978;28;20085;-80
2021/12/21 11:03:40;;;;;;;;;;;;;;;-1.90;100.00;99780.28;5098190;28;20097;-80
2021/12/21 11:06:12;;;;;;;15.23;7.07;;;;;;;-1.86;100.00;99766.69;5092264;28;20011;-80
2021/12/21 11:08:41;;;;;;;13.97;6.87;;;;;;;-1.82;100.00;99765.56;5103400;28;20046;-80
2021/12/21 11:11:11;;;;;;;9.53;6.33;;;;;;;-1.73;100.00;99757.94;5111797;28;20052;-80
2021/12/21 11:13:42;;;;;;;16.80;6.97;;;;;;;-1.67;100.00;99750.44;5113462;28;20055;-80
2021/12/21 11:16:09;;;;;;;12.37;6.17;;;;;;;-1.45;100.00;99754.47;5113657;28;20062;-80
2021/12/21 11:18:37;;;;;;;14.77;6.40;;;;;;;-1.43;100.00;99755.22;5100166;27;20048;-80
2021/12/21 11:21:09;;;;;;;11.23;6.13;;;;;;;-1.40;100.00;99739.06;5091912;28;20161;-80
2021/12/21 11:23:36;;;;;;;16.93;5.70;;;;;;;-1.29;100.00;99752.56;5097200;28;20105;-80
2021/12/21 11:26:07;;;;;;;10.53;5.43;;;;;;;-1.22;100.00;99742.34;5108060;28;20048;-81
2021/12/21 11:28:36;;;;;;;11.30;3.53;;;;;;;-1.16;100.00;99726.00;5093665;28;20051;-80
2021/12/21 11:31:17;;;;;;;12.70;5.10;;;;;;;-0.85;100.00;99717.84;5092799;28;20098;-80
2021/12/21 11:33:56;;;;;;;8.37;4.03;;;;;;;-0.72;100.00;99750.81;5103464;28;20051;-80
2021/12/21 11:39:10;;;;;;;5.13;2.13;;;;;;;-0.55;96.26;99721.19;5106793;28;20036;-80
2021/12/21 11:41:39;;;;;;;3.43;2.23;;;;;;;-0.44;94.79;99731.16;5103994;28;20084;-81
2021/12/21 11:44:17;;;;;;;3.07;1.97;;;;;;;-0.22;95.51;99745.78;5111787;28;20493;-81
2021/12/21 11:46:58;;;;;;;4.87;2.00;;;;;;;-0.11;93.01;99745.91;5097230;28;20309;-81
2021/12/21 11:49:32;;;;;;;3.07;2.53;;;;;;;0.02;94.33;99729.06;5111191;28;20048;-80
2021/12/21 11:52:13;;;;;;;8.87;2.67;;;;;;;0.03;93.30;99739.66;5115548;28;20130;-81
2021/12/21 11:54:52;;;;;;;6.50;2.57;;;;;;;0.01;91.84;99714.00;5099549;28;20044;-81
2021/12/21 11:57:33;;;;;;;3.95;2.17;;;;;;;0.17;93.04;99723.53;5095589;28;20048;-80
2021/12/21 12:00:09;;;;;;;5.40;2.57;;;;;;;0.25;91.99;99727.50;5112070;28;20126;-80
2021/12/21 12:02:38;;;;;;;3.80;2.33;;;;;;;0.24;92.59;99728.44;5107854;28;20047;-80
2021/12/21 12:05:19;;;;;;;3.73;2.23;;;;;;;0.24;89.41;99723.97;5096793;28;20094;-80
2021/12/21 12:07:47;;;;;;;6.07;2.20;;;;;;;0.39;88.68;99731.88;5107627;28;20093;-80
2021/12/21 12:10:21;;;;;;;6.27;2.60;;;;;;;0.40;87.58;99723.75;5095189;28;20048;-80
2021/12/21 12:12:49;;;;;;;5.70;2.50;;;;;;;0.32;89.88;99718.09;5095073;28;20102;-80
2021/12/21 12:15:18;;;;;;;3.93;2.20;;;;;;;0.46;88.78;99717.97;5109321;28;20047;-80
2021/12/21 12:17:53;;;;;;;7.47;2.40;;;;;;;0.53;88.75;99729.13;5115464;28;20051;-80
2021/12/21 12:20:28;;;;;;;2.88;1.98;;;;;;;0.56;90.04;99720.00;5116662;27;20048;-80
2021/12/21 12:23:05;;;;;;;3.15;2.08;;;;;;;0.60;90.33;99713.47;5113430;28;20101;-80
2021/12/21 12:25:32;;;;;;;3.28;2.35;;;;;;;0.57;88.68;99701.16;5095712;28;20101;-80
2021/12/21 12:28:01;;;;;;;2.38;2.03;;;;;;;0.69;85.70;99726.22;5109601;27;20478;-80
2021/12/21 12:30:31;;;;;;;4.47;2.40;;;;;;;0.57;85.50;99719.06;5117802;27;20043;-80
2021/12/21 12:33:01;;;;;;;5.87;2.10;;;;;;;0.56;85.74;99701.28;5119087;27;20040;-80
2021/12/21 12:35:32;;;;;;;3.92;2.15;;;;;;;0.67;86.35;99720.97;5123865;27;20054;-80
2021/12/21 12:38:00;;;;;;;;;;;;;;;0.67;86.89;99714.78;5131617;27;20047;-80
2021/12/21 12:40:30;;;;;;;5.22;2.17;;;;;;;0.66;86.99;99700.53;5118308;27;19927;-80
2021/12/21 12:43:04;;;;;;;6.72;2.45;;;;;;;0.59;84.92;99701.94;5130838;27;20051;-80
2021/12/21 12:45:38;;;;;;;4.68;2.03;;;;;;;0.80;84.65;99720.09;5109933;27;20122;-80
2021/12/21 12:48:21;;;;;;;7.45;2.85;;;;;;;0.77;82.73;99713.16;5115587;28;20131;-80
2021/12/21 12:50:48;;;;;;;6.43;2.55;;;;;;;0.83;82.71;99725.25;5109907;28;20134;-80
2021/12/21 12:53:15;;;;;;;3.58;2.20;;;;;;;0.81;84.29;99705.75;5114911;28;20442;-80
2021/12/21 12:55:50;;;;;;;5.82;2.10;;;;;;;0.83;83.11;99715.41;5113871;28;20490;-80
2021/12/21 12:58:20;;;;;;;5.50;2.20;;;;;;;0.90;82.28;99726.50;5114521;28;20142;-80
2021/12/21 13:00:56;;;;;;;7.60;2.80;;;;;;;0.95;82.79;99721.69;5099775;28;20495;-80
2021/12/21 13:03:32;;;;;;;3.25;2.30;;;;;;;0.92;83.63;99718.38;5094300;28;20048;-80
2021/12/21 13:06:01;;;;;;;2.13;1.88;;;;;;;0.95;83.05;99705.63;5110566;28;20043;-80
2021/12/21 13:08:30;;;;;;;6.03;2.65;;;;;;;0.92;84.60;99694.28;5114483;28;20468;-80
2021/12/21 13:11:02;;;;;;;8.10;2.50;;;;;;;0.90;84.62;99694.38;5096436;28;20554;-80
2021/12/21 13:13:37;;;;;;;3.75;2.13;;;;;;;0.98;82.16;99707.22;5094063;28;20163;-80
2021/12/21 13:16:08;;;;;;;3.80;2.22;;;;;;;0.90;84.24;99694.38;5111245;28;20048;-80
2021/12/21 13:18:42;;;;;;;9.35;2.67;;;;;;;0.94;83.53;99692.38;5114225;28;20051;-80
2021/12/21 13:21:22;;;;;;;3.63;2.33;;;;;;;1.06;82.22;99702.19;5096331;27;20471;-80
2021/12/21 13:23:51;;;;;;;4.55;2.60;;;;;;;1.03;82.93;99697.91;5111208;28;20056;-80
2021/12/21 13:26:19;;;;;;;4.10;2.70;;;;;;;1.01;82.79;99688.25;5113163;28;20079;-80
2021/12/21 13:28:49;;;;;;;3.25;2.38;;;;;;;0.98;82.12;99704.53;5113959;28;20290;-80
2021/12/21 13:31:26;;;;;;;5.30;2.45;;;;;;;0.92;81.40;99689.78;5113150;28;20058;-80
2021/12/21 13:33:58;;;;;;;5.50;2.17;;;;;;;1.01;80.32;99702.50;5114204;28;20058;-80
2021/12/21 13:36:37;;;;;;;6.47;3.15;;;;;;;0.91;80.25;99701.47;5096437;28;20094;-79
2021/12/21 13:39:16;;;;;;;4.72;2.75;;;;;;;0.98;80.16;99701.88;5104976;28;20087;-80
2021/12/21 13:41:47;;;;;;;5.63;2.55;;;;;;;0.96;80.72;99706.47;5111773;28;20489;-79
2021/12/21 13:44:20;;;;;;;7.15;2.45;;;;;;;0.99;82.00;99717.81;5116044;27;20051;-80
2021/12/21 13:46:48;;;;;;;6.13;2.80;;;;;;;1.03;80.97;99715.78;5094941;27;20048;-80
2021/12/21 13:49:18;;;;;;;3.13;2.17;;;;;;;0.96;80.65;99710.00;5093925;28;20052;-80
2021/12/21 13:51:52;;;;;;;2.67;2.20;;;;;;;1.03;81.00;99710.44;5111513;28;20097;-80
2021/12/21 13:54:22;;;;;;;5.70;2.70;;;;;;;1.02;79.11;99706.91;5103734;28;20043;-80
2021/12/21 13:56:52;;;;;;;5.07;2.63;;;;;;;1.00;80.15;99703.47;5095884;28;20059;-80
2021/12/21 13:59:27;;;;;;;7.72;2.67;;;;;;;0.87;80.79;99681.22;5095602;28;20051;-80
2021/12/21 14:02:06;;;;;;;4.53;2.75;;;;;;;0.88;82.44;99688.31;5112336;28;20047;-80
2021/12/21 14:04:48;;;;;;;3.75;2.88;;;;;;;0.90;82.29;99694.38;5115356;27;20479;-79
2021/12/21 14:07:18;;;;;;;3.90;2.63;;;;;;;0.82;81.42;99681.56;5094093;27;20058;-79
2021/12/21 14:09:44;;;;;;;4.53;2.70;;;;;;;0.97;81.60;99703.69;5105817;28;20054;-79
2021/12/21 14:12:14;;;;;;;3.28;2.40;;;;;;;0.92;81.02;99694.28;5111994;28;20044;-79
2021/12/21 14:14:42;;;;;;;4.03;2.40;;;;;;;0.91;80.50;99700.63;5114632;28;20071;-79
2021/12/21 14:17:12;;;;;;;3.83;2.70;;;;;;;0.88;83.11;99699.00;5094503;28;20130;-79
2021/12/21 14:20:02;;;;;;;3.25;2.40;;;;;;;0.76;83.46;99697.22;5093473;28;20083;-79
2021/12/21 14:22:32;;;;;;;4.55;2.38;;;;;;;0.71;84.28;99702.91;5112916;28;20051;-79
2021/12/21 14:25:13;;;;;;;9.23;2.95;;;;;;;0.59;84.54;99712.63;5105329;28;20063;-79
2021/12/21 14:27:42;;;;;;;3.47;2.42;;;;;;;0.52;85.77;99700.66;5106128;28;20047;-79
2021/12/21 14:30:11;;;;;;;5.97;3.22;;;;;;;0.65;86.10;99711.34;5108040;28;20051;-79
2021/12/21 14:33:03;;;;;;;6.38;2.90;;;;;;;0.58;85.05;99699.38;5110371;28;20096;-79
2021/12/21 14:35:36;;;;;;;4.85;2.90;;;;;;;0.43;87.73;99699.47;5112244;28;20455;-79
2021/12/21 14:38:11;;;;;;;4.07;2.22;;;;;;;0.37;87.58;99709.75;5092457;28;20491;-79
2021/12/21 14:40:49;;;;;;;7.70;2.90;;;;;;;0.41;86.81;99698.72;5092487;28;20048;-80
2021/12/21 14:43:24;;;;;;;4.05;2.45;;;;;;;0.55;86.04;99729.88;5092350;28;20113;-80
2021/12/21 14:45:52;;;;;;;3.50;2.28;;;;;;;0.49;85.25;99708.91;5092216;28;20763;-80
2021/12/21 14:48:21;;;;;;;5.68;2.72;;;;;;;0.51;86.09;99707.81;5095353;28;20048;-80
2021/12/21 14:50:57;;;;;;;4.45;2.55;;;;;;;0.31;86.43;99701.16;5111942;28;20046;-80
2021/12/21 14:53:31;;;;;;;2.53;2.22;;;;;;;0.23;87.11;99692.00;5113084;27;20051;-80
2021/12/21 14:56:01;;;;;;;4.82;2.42;;;;;;;0.31;85.63;99700.31;5110921;28;20534;-80
2021/12/21 14:58:30;;;;;;;4.60;2.90;;;;;;;0.32;86.79;99710.91;5092498;28;20044;-80
2021/12/21 15:01:03;;;;;;;5.40;2.58;;;;;;;0.16;88.67;99699.56;5094315;28;20228;-80
2021/12/21 15:03:39;;;;;;;5.95;2.47;;;;;;;-0.03;89.15;99706.19;5111787;28;20056;-80
2021/12/21 15:06:07;;;;;;;5.80;2.72;;;;;;;-0.29;90.41;99705.25;5108934;28;20093;-80
2021/12/21 15:08:35;;;;;;;7.18;2.40;;;;;;;-0.48;91.01;99700.28;5112445;28;20055;-80
2021/12/21 15:11:02;;;;;;;8.68;2.97;;;;;;;-0.38;91.01;99721.88;5111834;28;20449;-80
2021/12/21 15:13:31;;;;;;;3.47;2.40;;;;;;;-0.50;91.22;99699.50;5112789;27;20448;-80
2021/12/21 15:15:58;;;;;;;3.85;2.22;;;;;;;-0.51;91.58;99721.84;5108894;28;20074;-80
2021/12/21 15:18:25;;;;;;;3.08;2.20;;;;;;;-0.60;91.52;99703.78;5111976;28;20051;-80
2021/12/21 15:20:53;;;;;;;11.98;2.42;;;;;;;-0.68;91.43;99728.28;5114031;28;20048;-80
2021/12/21 15:23:21;;;;;;;3.03;2.38;;;;;;;-0.74;91.67;99718.88;5098689;28;20441;-80
2021/12/21 15:25:48;;;;;;;3.23;2.43;;;;;;;-0.98;93.47;99707.09;5116640;28;20122;-80
2021/12/21 15:28:15;;;;;;;2.40;1.90;;;;;;;-1.00;93.87;99728.53;5115980;27;20058;-80
2021/12/21 15:30:42;;;;;;;5.20;2.47;;;;;;;-1.16;94.93;99714.44;5115388;28;20048;-80
2021/12/21 15:33:09;;;;;;;3.67;2.30;;;;;;;-1.29;95.00;99725.03;5100092;28;20450;-80
2021/12/21 15:35:36;;;;;;;3.10;2.30;;;;;;;-1.43;95.91;99734.75;5096182;28;20052;-80
2021/12/21 15:38:05;;;;;;;2.77;2.00;;;;;;;-1.43;96.10;99745.44;5110198;28;20130;-80
2021/12/21 15:40:35;;;;;;;4.72;2.10;;;;;;;-1.63;97.01;99740.44;5108884;28;20305;-80
2021/12/21 15:43:06;;;;;;;3.77;2.43;;;;;;;-1.82;97.60;99727.38;5110249;28;20487;-80
2021/12/21 15:45:33;;;;;;;3.53;2.47;;;;;;;-1.83;98.49;99747.00;5097976;28;20392;-81
2021/12/21 15:48:00;;;;;;;5.60;3.47;;;;;;;-1.97;99.16;99727.34;5108119;28;20052;-80
2021/12/21 15:50:28;;;;;;;5.27;2.90;;;;;;;-2.05;98.87;99728.75;5114107;27;20048;-80
2021/12/21 15:52:55;;;;;;;3.57;2.33;;;;;;;-2.07;99.29;99746.63;5113232;27;20441;-80
2021/12/21 15:55:22;;;;;;;3.20;2.00;;;;;;;-2.15;99.73;99755.09;5115926;28;20490;-80
2021/12/21 15:57:54;;;;;;;7.90;2.50;;;;;;;-2.23;100.00;99744.88;5115240;28;20051;-80
2021/12/21 16:00:21;;;;;;;4.67;2.40;;;;;;;-2.31;100.00;99758.63;5115181;28;20052;-80
2021/12/21 16:02:48;;;;;;;5.50;2.70;;;;;;;-2.46;100.00;99745.34;5098875;27;20051;-80
2021/12/21 16:05:17;;;;;;;4.30;3.00;;;;;;;-2.60;100.00;99736.34;5095462;28;20136;-80
2021/12/21 16:07:44;;;;;;;3.70;2.43;;;;;;;-2.59;100.00;99756.69;5108942;28;20043;-81
2021/12/21 16:10:11;;;;;;;6.47;2.40;;;;;;;-2.54;100.00;99765.25;5115436;28;20051;-80
2021/12/21 16:12:39;;;;;;;4.63;2.73;;;;;;;-2.67;100.00;99756.25;5114586;28;20049;-81
2021/12/21 16:15:08;;;;;;;3.70;2.60;;;;;;;-2.63;100.00;99765.78;5111165;27;20638;-81
2021/12/21 16:17:36;;;;;;;5.25;2.55;;;;;;;-2.74;100.00;99762.84;5105024;27;20487;-80
2021/12/21 16:20:11;;;;;;;3.00;2.50;;;;;;;-2.82;100.00;99768.59;5115290;28;20522;-80
2021/12/21 16:22:41;;;;;;;4.80;2.80;;;;;;;-2.94;100.00;99743.53;5114400;27;20043;-80
2021/12/21 16:25:10;;;;;;;5.93;2.60;;;;;;;-2.76;100.00;99770.94;5108721;28;20106;-80
2021/12/21 16:27:37;;;;;;;3.15;2.50;;;;;;;-2.94;100.00;99748.84;5094839;28;20097;-80
2021/12/21 16:30:11;;;;;;;4.40;2.87;;;;;;;-3.07;100.00;99745.16;5108070;28;20048;-80
2021/12/21 16:32:38;;;;;;;4.43;3.23;;;;;;;-3.12;100.00;99755.19;5106160;28;20093;-81
2021/12/21 16:35:06;;;;;;;3.33;2.63;;;;;;;-3.13;100.00;99758.78;5114610;28;20054;-80
2021/12/21 16:37:33;;;;;;;4.13;3.07;;;;;;;-3.30;100.00;99746.41;5109163;28;20407;-81
2021/12/21 16:40:00;;;;;;;2.97;2.67;;;;;;;-3.26;100.00;99769.25;5096064;28;20572;-80
2021/12/21 16:42:26;;;;;;;3.03;2.73;;;;;;;-3.27;100.00;99751.56;5113068;28;20479;-80
2021/12/21 16:44:53;;;;;;;3.33;2.90;;;;;;;-3.20;100.00;99760.94;5114866;28;20047;-80
2021/12/21 16:47:23;;;;;;;6.30;2.60;;;;;;;-3.22;100.00;99761.00;5114301;28;20048;-80
2021/12/21 16:49:49;;;;;;;3.42;2.80;;;;;;;-3.46;100.00;99751.69;5114727;28;20509;-80
2021/12/21 16:52:17;;;;;;;3.77;2.70;;;;;;;-3.38;100.00;99771.59;5113571;28;20055;-80
2021/12/21 16:54:44;;;;;;;2.83;2.63;;;;;;;-3.49;100.00;99759.81;5094840;28;20060;-80
2021/12/21 16:57:11;;;;;;;4.57;3.10;;;;;;;-3.50;100.00;99761.63;5111882;28;20059;-80
2021/12/21 16:59:44;;;;;;;4.43;3.10;;;;;;;-3.62;100.00;99757.81;5094491;28;20071;-80
2021/12/21 17:02:14;;;;;;;8.40;3.40;;;;;;;-3.68;100.00;99741.34;5094034;28;20048;-80
2021/12/21 17:04:42;;;;;;;5.50;3.28;;;;;;;-3.57;100.00;99757.56;5113955;28;20048;-80
2021/12/21 17:07:12;;;;;;;4.53;3.03;;;;;;;-3.72;100.00;99745.94;5114689;28;20052;-80
2021/12/21 17:09:39;;;;;;;5.05;3.60;;;;;;;-3.79;100.00;99745.41;5096051;28;20044;-80
2021/12/21 17:12:08;;;;;;;8.57;3.87;;;;;;;-3.80;100.00;99756.13;5093051;28;20411;-80
2021/12/21 17:14:35;;;;;;;6.55;3.30;;;;;;;-3.96;100.00;99750.72;5113588;28;20089;-81
2021/12/21 17:17:03;;;;;;;3.83;3.10;;;;;;;-4.01;100.00;99748.31;5114446;28;20069;-81
2021/12/21 17:19:34;;;;;;;16.30;7.67;;;;;;;-3.81;100.00;99768.56;5113682;28;20051;-81
2021/12/21 17:22:02;;;;;;;6.70;4.27;;;;;;;-3.94;100.00;99756.84;5106488;28;20074;-81
2021/12/21 17:24:29;;;;;;;6.07;3.87;;;;;;;-3.91;100.00;99767.31;5094039;28;20110;-80
2021/12/21 17:26:58;;;;;;;5.87;4.67;;;;;;;-3.93;100.00;99772.69;5093518;28;20047;-81
2021/12/21 17:29:25;;;;;;;5.72;4.10;;;;;;;-3.93;100.00;99777.13;5097507;27;20468;-81
2021/12/21 17:31:52;;;;;;;5.37;4.20;;;;;;;-4.01;100.00;99764.25;5108802;27;20043;-80
2021/12/21 17:34:19;;;;;;;8.77;4.30;;;;;;;-4.02;100.00;99782.91;5118299;27;20405;-80
2021/12/21 17:36:51;;;;;;;11.50;4.00;;;;;;;-4.22;100.00;99776.81;5118329;27;20490;-80
2021/12/21 17:39:19;;;;;;;5.83;4.27;;;;;;;-4.16;100.00;99780.94;5119153;27;20490;-80
2021/12/21 17:41:46;;;;;;;6.07;3.83;;;;;;;-4.22;100.00;99789.22;5133913;27;20204;-80
2021/12/21 17:44:15;;;;;;;7.77;3.90;;;;;;;-4.31;100.00;99799.34;5096425;27;20044;-81
2021/12/21 17:46:42;;;;;;;8.17;3.80;;;;;;;-4.34;100.00;99796.84;5110510;27;20047;-81
2021/12/21 17:49:08;;;;;;;6.00;4.30;;;;;;;-4.22;100.00;99829.91;5119728;27;20061;-80
2021/12/21 17:51:35;;;;;;;9.77;5.30;;;;;;;-4.28;100.00;99828.41;5093684;27;20453;-81
2021/12/21 17:54:06;;;;;;;12.03;6.60;;;;;;;-4.32;100.00;99824.19;5112169;27;20058;-81
2021/12/21 17:56:35;;;;;;;15.27;8.33;;;;;;;-4.25;100.00;99826.56;5127045;27;20047;-80
2021/12/21 17:59:02;;;;;;;16.42;8.68;;;;;;;-4.28;100.00;99833.72;5116799;27;20056;-80
2021/12/21 18:01:34;;;;;;;12.37;7.40;;;;;;;-4.36;100.00;99824.41;5106781;27;20043;-81
2021/12/21 18:04:01;;;;;;;15.60;7.10;;;;;;;-4.54;100.00;99813.75;5112119;28;20108;-80
2021/12/21 18:06:34;;;;;;;14.30;7.60;;;;;;;-4.44;100.00;99832.75;5112970;27;20052;-81
2021/12/21 18:09:03;;;;;;;15.70;7.20;;;;;;;-4.45;100.00;99821.25;5115313;27;20058;-80
2021/12/21 18:11:35;;;;;;;14.82;7.97;;;;;;;-4.55;100.00;99808.50;5129440;27;20046;-80
2021/12/21 18:14:02;;;;;;;18.93;8.17;;;;;;;-4.41;100.00;99826.41;5128986;27;20050;-80
2021/12/21 18:16:32;;;;;;;10.77;6.63;;;;;;;-4.49;100.00;99817.03;5112942;27;20186;-81
2021/12/21 18:18:59;;;;;;;;;;;;;;;-4.46;100.00;99814.25;5117991;27;20044;-81
2021/12/21 18:21:26;;;;;;;9.47;5.73;;;;;;;-4.59;100.00;99815.78;5112313;28;19923;-81
2021/12/21 18:23:58;;;;;;;10.60;5.60;;;;;;;-4.62;100.00;99811.47;5113053;28;20505;-81
2021/12/21 18:26:25;;;;;;;10.87;5.77;;;;;;;-4.79;100.00;99811.38;5108618;27;20441;-81
2021/12/21 18:28:54;;;;;;;9.27;4.63;;;;;;;-4.81;100.00;99816.75;5092578;28;20419;-81
2021/12/21 18:31:21;;;;;;;9.48;5.43;;;;;;;-4.87;100.00;99821.50;5095481;28;20112;-81
2021/12/21 18:33:51;;;;;;;7.80;5.30;;;;;;;-4.80;100.00;99836.22;5108457;27;20093;-81
2021/12/21 18:36:18;;;;;;;9.53;6.20;;;;;;;-4.85;100.00;99836.41;5112714;28;20055;-81
2021/12/21 18:38:47;;;;;;;11.37;6.63;;;;;;;-4.88;100.00;99833.88;5112795;28;20138;-81
2021/12/21 18:41:15;;;;;;;15.10;6.78;;;;;;;-4.81;100.00;99829.16;5112096;27;20067;-81
2021/12/21 18:43:42;;;;;;;14.23;7.73;;;;;;;-4.80;100.00;99836.22;5092296;28;20052;-81
2021/12/21 18:46:10;;;;;;;14.23;7.27;;;;;;;-4.88;100.00;99831.22;5106017;28;20086;-81
2021/12/21 18:48:37;;;;;;;13.73;6.13;;;;;;;-4.86;100.00;99834.69;5092603;28;20059;-81
2021/12/21 18:51:04;;;;;;;12.20;6.20;;;;;;;-4.91;100.00;99834.03;5110396;28;20517;-81
2021/12/21 18:53:35;;;;;;;13.00;5.33;;;;;;;-5.03;100.00;99827.50;5093349;28;20088;-81
2021/12/21 18:56:02;;;;;;;9.33;5.33;;;;;;;-5.12;100.00;99827.06;5092754;28;20058;-81
2021/12/21 18:58:32;;;;;;;8.50;4.93;;;;;;;-5.04;100.00;99852.31;5092464;28;20052;-81
2021/12/21 19:01:04;;;;;;;5.50;4.03;;;;;;;-5.17;100.00;99851.13;5092281;28;20048;-81
2021/12/21 19:03:35;;;;;;;7.40;4.27;;;;;;;-5.17;100.00;99837.88;5092080;28;20052;-81
2021/12/21 19:06:02;;;;;;;14.47;6.70;;;;;;;-5.08;100.00;99855.16;5092282;28;20048;-81